This is the latest recevied weather packets stored in our database for station/object N8XE-13. If no packets are shown the sender has not sent any weather packets the latest 10 day(s).
| Time | Temp. | Humidity | Pressure | Rain* | Wind** | Luminosity | Snow |
|---|---|---|---|---|---|---|---|
| 1778190432 | 13.89° C | 41% | - | 0 mm | - | - | - |
| 1778190129 | 13.89° C | 42% | - | 0 mm | - | - | - |
| 1778189824 | 14.44° C | 40% | - | 0 mm | - | - | - |
| 1778189522 | 14.44° C | 39% | - | 0 mm | - | - | - |
| 1778189218 | 15° C | 38% | - | 0 mm | - | - | - |
| 1778188915 | 15° C | 37% | - | 0 mm | - | - | - |
| 1778188612 | 15.56° C | 39% | - | 0 mm | - | - | - |
| 1778188307 | 14.44° C | 39% | - | 0 mm | - | - | - |
| 1778188005 | 15° C | 40% | - | 0 mm | - | - | - |
| 1778187701 | 15° C | 40% | - | 0 mm | - | - | - |
| 1778187398 | 14.44° C | 39% | - | 0 mm | - | - | - |
| 1778187094 | 13.89° C | 40% | - | 0 mm | - | - | - |
| 1778186791 | 13.89° C | 42% | - | 0 mm | - | - | - |
| 1778186489 | 14.44° C | 42% | - | 0 mm | - | - | - |
| 1778186186 | 14.44° C | 42% | - | 0 mm | - | - | - |
| 1778185884 | 15° C | 41% | - | 0 mm | - | - | - |
| 1778185579 | 13.89° C | 44% | - | 0 mm | - | - | - |
| 1778185276 | 14.44° C | 43% | - | 0 mm | - | - | - |
| 1778184971 | 14.44° C | 43% | - | 0 mm | - | - | - |
| 1778184668 | 14.44° C | 40% | - | 0 mm | - | - | - |
| 1778184363 | 13.33° C | 45% | - | 0 mm | - | - | - |
| 1778184060 | 14.44° C | 43% | - | 0 mm | - | - | - |
| 1778183757 | 14.44° C | 42% | - | 0 mm | - | - | - |
| 1778183454 | 15° C | 40% | - | 0 mm | - | - | - |
| 1778183150 | 14.44° C | 41% | - | 0 mm | - | - | - |
* Rain latest hour (hover to see other rain measurements)
** Current wind speed in m/s (hover to see current wind gust speed)